KALW/ALW METAR and TAF weather

Enter ICAO airport designator
Station Type Date Time Source
KALW METAR 2019/08/25 14:53 UTC NOAA

KALW 251453Z 18009KT 10SM OVC060 19/11 A3004 RMK AO2 SLP164 T01890111 53020


Station Type Date Time Source
KALW Decoded METAR 2019/08/25 14:53 UTC NOAA

Station name not available
Aug 25, 2019 - 10:53 AM EDT / 2019.08.25 1453 UTC
Wind: from the S (180 degrees) at 10 MPH (9 KT):0
Visibility: 10 mile(s):0
Sky conditions: overcast
Temperature: 66.0 F (18.9 C)
Dew Point: 52.0 F (11.1 C)
Relative Humidity: 60%
Pressure (altimeter): 30.04 in. Hg (1017 hPa)
Pressure tendency: 0.06 inches (2.0 hPa) higher than three hours ago
ob: KALW 251453Z 18009KT 10SM OVC060 19/11 A3004 RMK AO2 SLP164 T01890111 53020
cycle: 15

Station Type Date Time Source
KALW TAF 2019/08/25 14:28 UTC NOAA

TAF
AMD KALW 251426Z 2514/2612 19010KT P6SM OVC060
FM251600 24012G19KT P6SM SKC
FM260100 25007KT P6SM SKC
FM260400 16008KT P6SM SKC

Example: see airport list